Overview Statistics Trail Chart Weather Telemetry Raw packets
 

This is the latest recevied weather packets stored in our database for station/object W6JCZ-13. If no packets are shown the sender has not sent any weather packets the latest 10 day(s).

<< 1 2 3 4 5 6 >>
Time Temp. Humidity Pressure Rain* Wind** Luminosity Snow
1788601216 12.22° C 83% 1012.4 hPa 0 mm - - -
1788600616 12.78° C 83% 1012.5 hPa 0 mm - - -
1788600016 12.78° C 82% 1012.5 hPa 0 mm - - -
1788599416 12.78° C 81% 1012.5 hPa 0 mm - - -
1788598816 12.78° C 81% 1012.5 hPa 0 mm - - -
1788598216 12.78° C 80% 1012.5 hPa 0 mm - - -
1788597616 12.22° C 81% 1012.5 hPa 0 mm - - -
1788597016 12.22° C 80% 1012.3 hPa 0 mm - - -
1788596416 12.22° C 80% 1012.3 hPa 0 mm - - -
1788595816 12.22° C 79% 1012.3 hPa 0 mm - - -
1788595216 12.78° C 78% 1012.3 hPa 0 mm - - -
1788594616 13.33° C 76% 1012.2 hPa 0 mm - - -
1788594016 13.33° C 76% 1012.2 hPa 0 mm - - -
1788593416 13.89° C 74% 1012.1 hPa 0 mm - - -
1788592820 13.89° C 74% 1012.1 hPa 0 mm - - -
1788592216 14.44° C 73% 1012 hPa 0 mm - - -
1788591616 14.44° C 73% 1011.8 hPa 0 mm - - -
1788591016 15° C 74% 1011.6 hPa 0 mm - - -
1788590416 15° C 73% 1011.6 hPa 0 mm - - -
1788589816 14.44° C 75% 1011.7 hPa 0 mm - - -
1788589245 14.44° C 77% 1011.5 hPa 0 mm - - -
1788588616 15° C 74% 1011.5 hPa 0 mm - - -
1788588016 15° C 72% 1011.5 hPa 0 mm - - -
1788587416 15.56° C 71% 1011.5 hPa 0 mm - - -
1788586816 15.56° C 70% 1011.5 hPa 0 mm - - -

* Rain latest hour (hover to see other rain measurements)
** Current wind speed in m/s (hover to see current wind gust speed)